Time;durP1;ratioP1;P1;durP2;ratioP2;P2;SDS_P1;SDS_P2;PMS_P1;PMS_P2;Temp;Humidity;BMP_temperature;BMP_pressure;BME280_temperature;BME280_humidity;BME280_pressure;Samples;Min_cycle;Max_cycle;Signal;HPM_P1;HPM_P2
2023/03/07 00:00:50;;;;;;;15.15;8.30;;;3.20;99.90;;;;;;5117096;27;20031;-84
2023/03/07 00:03:16;;;;;;;15.95;8.50;;;3.30;99.90;;;;;;5105690;27;20467;-84
2023/03/07 00:05:42;;;;;;;13.23;6.60;;;3.30;99.90;;;;;;5113971;27;20094;-84
2023/03/07 00:08:09;;;;;;;12.27;6.63;;;3.40;99.90;;;;;;5102957;28;20073;-83
2023/03/07 00:10:34;;;;;;;10.32;5.07;;;3.40;99.90;;;;;;5113052;28;20118;-84
2023/03/07 00:13:00;;;;;;;8.50;3.63;;;3.40;99.90;;;;;;5096918;28;20122;-84
2023/03/07 00:15:26;;;;;;;11.50;3.35;;;3.40;99.90;;;;;;5093368;28;20043;-83
2023/03/07 00:17:51;;;;;;;8.75;3.03;;;3.30;99.90;;;;;;5106410;28;20035;-83
2023/03/07 00:20:17;;;;;;;6.63;2.95;;;3.30;99.90;;;;;;5135452;27;20506;-83
2023/03/07 00:22:43;;;;;;;7.47;3.38;;;3.30;99.90;;;;;;5112474;28;20163;-84
2023/03/07 00:25:09;;;;;;;7.28;4.00;;;3.30;99.90;;;;;;5107387;28;20409;-83
2023/03/07 00:27:35;;;;;;;8.88;3.88;;;3.30;99.90;;;;;;5111010;28;20773;-83
2023/03/07 00:30:05;;;;;;;8.48;4.30;;;3.30;99.90;;;;;;5092363;28;20039;-83
2023/03/07 00:32:31;;;;;;;11.00;4.40;;;3.30;99.90;;;;;;5117402;28;20054;-84
2023/03/07 00:34:58;;;;;;;11.88;3.90;;;3.20;99.90;;;;;;5102957;28;20130;-84
2023/03/07 00:37:24;;;;;;;8.85;3.60;;;3.30;99.90;;;;;;5109198;27;20032;-84
2023/03/07 00:39:49;;;;;;;8.95;3.90;;;3.30;99.90;;;;;;5089941;28;20411;-83
2023/03/07 00:42:15;;;;;;;9.70;3.65;;;3.20;99.90;;;;;;5115089;28;20490;-83
2023/03/07 00:44:41;;;;;;;12.18;3.30;;;3.20;99.90;;;;;;5113197;28;20027;-84
2023/03/07 00:47:06;;;;;;;8.00;3.08;;;3.20;99.90;;;;;;5097723;28;20130;-83
2023/03/07 00:49:32;;;;;;;9.10;2.97;;;3.20;99.90;;;;;;5110384;28;20043;-84
2023/03/07 00:51:58;;;;;;;7.75;2.67;;;3.20;99.90;;;;;;5113922;28;20059;-83
2023/03/07 00:54:23;;;;;;;7.90;2.33;;;3.30;99.90;;;;;;5117547;27;20088;-83
2023/03/07 00:56:49;;;;;;;8.27;2.05;;;3.20;99.90;;;;;;5110650;28;20070;-84
2023/03/07 00:59:14;;;;;;;7.15;2.17;;;3.30;99.90;;;;;;5113657;28;20036;-84
2023/03/07 01:01:40;;;;;;;5.88;1.98;;;3.30;99.90;;;;;;5106489;27;20032;-83
2023/03/07 01:04:06;;;;;;;10.45;2.15;;;3.30;99.90;;;;;;5116166;27;20070;-83
2023/03/07 01:06:32;;;;;;;8.27;2.22;;;3.30;99.90;;;;;;5109575;27;20032;-84
2023/03/07 01:09:01;;;;;;;7.28;1.77;;;3.30;99.90;;;;;;5092033;28;20572;-84
2023/03/07 01:11:27;;;;;;;7.07;1.63;;;3.40;99.90;;;;;;5119391;27;20032;-84
2023/03/07 01:13:58;;;;;;;7.25;1.70;;;3.40;99.90;;;;;;5108003;28;20042;-84
2023/03/07 01:16:27;;;;;;;10.35;1.90;;;3.40;99.90;;;;;;5109695;27;20067;-83
2023/03/07 01:18:58;;;;;;;13.30;1.88;;;3.40;99.90;;;;;;5108685;28;20028;-84
2023/03/07 01:21:25;;;;;;;8.85;1.95;;;3.40;99.90;;;;;;5107417;28;20123;-84
2023/03/07 01:23:51;;;;;;;8.43;1.65;;;3.50;99.90;;;;;;5106517;28;20042;-83
2023/03/07 01:26:20;;;;;;;7.47;1.55;;;3.40;99.90;;;;;;5109263;27;20050;-84
2023/03/07 01:28:46;;;;;;;8.32;1.45;;;3.50;99.90;;;;;;5109520;28;20055;-83
2023/03/07 01:31:12;;;;;;;8.80;1.90;;;3.40;99.90;;;;;;5110563;28;20031;-84
2023/03/07 01:33:38;;;;;;;7.88;1.50;;;3.40;99.90;;;;;;5112706;28;20032;-83
2023/03/07 01:36:04;;;;;;;13.77;1.55;;;3.40;99.90;;;;;;5139280;27;20055;-84
2023/03/07 01:38:32;;;;;;;9.05;1.48;;;3.40;99.90;;;;;;5111663;27;20583;-84
2023/03/07 01:41:02;;;;;;;9.25;1.67;;;3.40;99.90;;;;;;5111424;27;20511;-83
2023/03/07 01:43:33;;;;;;;12.02;2.53;;;3.40;99.90;;;;;;5121855;27;20032;-84
2023/03/07 01:46:16;;;;;;;9.85;1.40;;;3.40;99.90;;;;;;5116439;27;20032;-83
2023/03/07 01:48:49;;;;;;;8.90;1.95;;;3.40;99.90;;;;;;5106221;27;20043;-83
2023/03/07 01:51:15;;;;;;;13.48;1.80;;;3.40;99.90;;;;;;5096778;28;20545;-83
2023/03/07 01:53:41;;;;;;;10.07;1.92;;;3.40;99.90;;;;;;5113002;27;20035;-84
2023/03/07 01:56:07;;;;;;;6.93;1.30;;;3.40;99.90;;;;;;5113307;27;20051;-83
2023/03/07 01:58:36;;;;;;;9.10;1.30;;;3.30;99.90;;;;;;5107684;27;20032;-83
2023/03/07 02:01:02;;;;;;;7.57;1.50;;;3.20;99.90;;;;;;5093349;28;20036;-83
2023/03/07 02:03:40;;;;;;;11.15;2.05;;;3.20;99.90;;;;;;5110413;28;20096;-83
2023/03/07 02:06:10;;;;;;;11.57;1.92;;;3.10;99.90;;;;;;5086986;28;20456;-83
2023/03/07 02:08:37;;;;;;;6.32;1.10;;;3.10;99.90;;;;;;5096621;28;20410;-84
2023/03/07 02:11:04;;;;;;;12.18;1.42;;;3.00;99.90;;;;;;5091360;28;20050;-84
2023/03/07 02:13:29;;;;;;;10.30;1.60;;;3.00;99.90;;;;;;5106561;28;20039;-83
2023/03/07 02:15:58;;;;;;;11.65;1.77;;;2.90;99.90;;;;;;5094806;27;20537;-83
2023/03/07 02:18:25;;;;;;;11.27;1.58;;;2.90;99.90;;;;;;5113557;27;20061;-84
2023/03/07 02:21:16;;;;;;;13.70;1.52;;;2.80;99.90;;;;;;5109022;28;20027;-84
2023/03/07 02:24:20;;;;;;;10.60;1.27;;;2.80;99.90;;;;;;5106308;27;20056;-83
2023/03/07 02:26:48;;;;;;;9.93;1.65;;;2.80;99.90;;;;;;5090468;27;20118;-83
2023/03/07 02:29:13;;;;;;;12.95;1.48;;;2.80;99.90;;;;;;5113037;27;20044;-83
2023/03/07 02:31:40;;;;;;;10.13;1.63;;;2.80;99.90;;;;;;5108900;27;20036;-83
2023/03/07 02:34:21;;;;;;;8.30;1.40;;;2.80;99.90;;;;;;5108728;27;20163;-83
2023/03/07 02:36:48;;;;;;;7.95;1.10;;;2.80;99.90;;;;;;5118037;27;20040;-83
2023/03/07 02:39:14;;;;;;;6.28;1.13;;;2.90;99.90;;;;;;5116771;27;20039;-83
2023/03/07 02:41:40;;;;;;;10.45;1.52;;;2.90;99.90;;;;;;5109075;28;20027;-83
2023/03/07 02:44:05;;;;;;;9.50;1.20;;;2.90;99.90;;;;;;5091521;28;20039;-83
2023/03/07 02:46:31;;;;;;;6.32;1.20;;;2.90;99.90;;;;;;5103843;27;20058;-83
2023/03/07 02:48:56;;;;;;;8.57;1.33;;;2.90;99.90;;;;;;5109732;27;20056;-85
2023/03/07 02:51:22;;;;;;;9.85;1.63;;;2.90;99.90;;;;;;5102177;28;20156;-83
2023/03/07 02:53:47;;;;;;;5.88;1.25;;;2.90;99.90;;;;;;5086961;28;20414;-83
2023/03/07 02:56:13;;;;;;;11.52;1.30;;;2.80;99.90;;;;;;5109468;28;20152;-84
2023/03/07 02:58:39;;;;;;;9.00;1.55;;;2.80;99.90;;;;;;5105567;28;20039;-83
2023/03/07 03:01:05;;;;;;;16.30;1.55;;;2.70;99.90;;;;;;5106661;28;20040;-83
2023/03/07 03:03:30;;;;;;;13.07;1.65;;;2.70;99.90;;;;;;5108398;28;20063;-83
2023/03/07 03:05:56;;;;;;;7.57;1.17;;;2.70;99.90;;;;;;5110741;28;20143;-83
2023/03/07 03:08:21;;;;;;;12.35;1.77;;;2.70;99.90;;;;;;5098304;27;20611;-84
2023/03/07 03:10:51;;;;;;;6.78;1.10;;;2.70;99.90;;;;;;5139654;27;20618;-83
2023/03/07 03:13:17;;;;;;;6.60;1.73;;;2.60;99.90;;;;;;5096048;28;20039;-83
2023/03/07 03:15:43;;;;;;;6.72;1.30;;;2.60;99.90;;;;;;5096387;27;20499;-83
2023/03/07 03:18:08;;;;;;;11.30;1.77;;;2.50;99.90;;;;;;5111763;27;20410;-83
2023/03/07 03:20:34;;;;;;;9.05;1.45;;;2.60;99.90;;;;;;5111241;27;20497;-84
2023/03/07 03:22:59;;;;;;;5.70;0.90;;;2.60;99.90;;;;;;5108338;27;20031;-83
2023/03/07 03:25:26;;;;;;;5.07;1.08;;;2.60;99.90;;;;;;5091539;27;20036;-83
2023/03/07 03:27:51;;;;;;;10.32;1.55;;;2.50;99.90;;;;;;5107114;28;20028;-83
2023/03/07 03:30:17;;;;;;;6.95;1.58;;;2.50;99.90;;;;;;5115728;27;20096;-83
2023/03/07 03:32:42;;;;;;;7.03;1.00;;;2.50;99.90;;;;;;5109160;27;20030;-83
2023/03/07 03:35:08;;;;;;;8.32;1.42;;;2.50;99.90;;;;;;5117189;27;20038;-84
2023/03/07 03:37:34;;;;;;;8.77;1.52;;;2.60;99.90;;;;;;5106914;28;20032;-84
2023/03/07 03:39:59;;;;;;;5.43;1.42;;;2.60;99.90;;;;;;5100620;27;20089;-84
2023/03/07 03:42:25;;;;;;;11.10;1.33;;;2.50;99.90;;;;;;5107434;27;20511;-83
2023/03/07 03:44:50;;;;;;;9.45;1.30;;;2.50;99.90;;;;;;5109805;27;20044;-84
2023/03/07 03:47:16;;;;;;;6.55;1.73;;;2.50;99.90;;;;;;5110761;28;20388;-84
2023/03/07 03:49:41;;;;;;;10.93;1.50;;;2.50;99.90;;;;;;5107209;27;20035;-84
2023/03/07 03:52:08;;;;;;;8.00;1.10;;;2.50;99.90;;;;;;5112121;27;20055;-83
2023/03/07 03:54:34;;;;;;;8.00;0.90;;;2.50;99.90;;;;;;5103390;28;20036;-85
2023/03/07 03:57:00;;;;;;;6.90;1.23;;;2.40;99.90;;;;;;5104288;28;20200;-84
2023/03/07 03:59:25;;;;;;;8.15;1.70;;;2.50;99.90;;;;;;5104142;28;20040;-84
2023/03/07 04:01:51;;;;;;;6.85;1.02;;;2.50;99.90;;;;;;5109660;28;20036;-84
2023/03/07 04:04:17;;;;;;;9.73;1.67;;;2.50;99.90;;;;;;5104965;28;20499;-83
2023/03/07 04:06:42;;;;;;;5.50;1.00;;;2.50;99.90;;;;;;5090990;28;20080;-84
2023/03/07 04:09:09;;;;;;;8.85;1.60;;;2.60;99.90;;;;;;5106877;28;20050;-84
2023/03/07 04:11:35;;;;;;;8.27;1.35;;;2.60;99.90;;;;;;5106451;28;20480;-85
2023/03/07 04:14:01;;;;;;;8.48;1.30;;;2.50;99.90;;;;;;5106788;28;20044;-84
2023/03/07 04:16:26;;;;;;;8.00;0.90;;;2.50;99.90;;;;;;5117330;28;20100;-83
2023/03/07 04:18:52;;;;;;;10.98;1.58;;;3.20;99.90;;;;;;5103499;28;20119;-84
2023/03/07 04:21:19;;;;;;;7.00;1.02;;;2.50;99.90;;;;;;5112776;27;20115;-84
2023/03/07 04:23:45;;;;;;;7.13;1.20;;;2.50;99.90;;;;;;5090441;28;20401;-84
2023/03/07 04:26:11;;;;;;;11.10;1.25;;;2.40;99.90;;;;;;5104567;28;20130;-85
2023/03/07 04:28:45;;;;;;;5.10;1.00;;;2.50;99.90;;;;;;5109806;27;20032;-84
2023/03/07 04:31:15;;;;;;;6.32;1.27;;;2.50;99.90;;;;;;5113088;28;20043;-84
2023/03/07 04:33:41;;;;;;;6.03;1.35;;;2.00;99.90;;;;;;5149037;27;20417;-84
2023/03/07 04:36:07;;;;;;;11.45;1.60;;;2.40;99.90;;;;;;5096596;28;20062;-84
2023/03/07 04:38:32;;;;;;;7.78;1.27;;;3.40;99.90;;;;;;5111657;28;20048;-84
2023/03/07 04:40:58;;;;;;;7.22;1.10;;;2.50;99.90;;;;;;5119851;27;20042;-83
2023/03/07 04:43:23;;;;;;;8.88;1.40;;;2.60;99.90;;;;;;5108781;27;20038;-83
2023/03/07 04:45:52;;;;;;;8.23;1.30;;;2.50;99.90;;;;;;5111918;27;20130;-83
2023/03/07 04:48:17;;;;;;;8.95;1.23;;;2.50;99.90;;;;;;5105263;28;20044;-83
2023/03/07 04:50:43;;;;;;;6.40;1.70;;;2.60;99.90;;;;;;5109610;28;20537;-83
2023/03/07 04:53:08;;;;;;;11.27;1.35;;;2.50;99.90;;;;;;5112862;27;20479;-84
2023/03/07 04:55:34;;;;;;;8.60;1.20;;;2.50;99.90;;;;;;5106891;27;20039;-83
2023/03/07 04:57:59;;;;;;;7.40;1.63;;;2.50;99.90;;;;;;5091849;28;20517;-83
2023/03/07 05:00:25;;;;;;;10.02;1.42;;;2.50;99.90;;;;;;5121837;27;20116;-83
2023/03/07 05:02:50;;;;;;;6.80;1.35;;;2.50;99.90;;;;;;5117138;27;20046;-83
2023/03/07 05:05:16;;;;;;;12.52;1.38;;;2.50;99.90;;;;;;5110225;27;20032;-82
2023/03/07 05:07:42;;;;;;;7.70;1.33;;;2.40;99.90;;;;;;5093720;28;20519;-83
2023/03/07 05:10:09;;;;;;;8.45;1.60;;;2.50;99.90;;;;;;5126376;27;20042;-83
2023/03/07 05:12:35;;;;;;;4.30;1.00;;;2.40;99.90;;;;;;5138842;27;20035;-83
2023/03/07 05:15:00;;;;;;;6.78;1.40;;;2.50;99.90;;;;;;5112229;27;20039;-84
2023/03/07 05:17:26;;;;;;;6.18;0.90;;;2.50;99.90;;;;;;5126804;27;20449;-83
2023/03/07 05:19:53;;;;;;;10.48;2.17;;;2.50;99.90;;;;;;5110863;28;20024;-83
2023/03/07 05:22:19;;;;;;;6.13;1.00;;;2.60;99.90;;;;;;5137244;27;20034;-83
2023/03/07 05:24:45;;;;;;;5.10;1.30;;;2.60;99.90;;;;;;5126709;27;20484;-83
2023/03/07 05:27:11;;;;;;;10.63;2.28;;;2.70;99.90;;;;;;5106907;28;20405;-83
2023/03/07 05:29:36;;;;;;;9.38;1.42;;;2.70;99.90;;;;;;5116081;27;20042;-83
2023/03/07 05:32:02;;;;;;;11.10;1.48;;;2.70;99.90;;;;;;5109419;28;20499;-83
2023/03/07 05:34:27;;;;;;;10.10;2.10;;;2.80;99.90;;;;;;5103546;28;20050;-84
2023/03/07 05:36:53;;;;;;;5.72;0.95;;;2.70;99.90;;;;;;5110764;28;20036;-84
2023/03/07 05:39:18;;;;;;;7.22;1.42;;;2.80;99.90;;;;;;5114936;27;20046;-83
2023/03/07 05:41:44;;;;;;;9.77;1.33;;;2.80;99.90;;;;;;5146667;27;20422;-83
2023/03/07 05:44:09;;;;;;;12.20;1.80;;;2.80;99.90;;;;;;5116672;27;20047;-83
2023/03/07 05:46:35;;;;;;;7.05;1.40;;;2.80;99.90;;;;;;5114628;27;20055;-84
2023/03/07 05:49:00;;;;;;;9.32;1.70;;;2.80;99.90;;;;;;5112532;27;20038;-85
2023/03/07 05:51:26;;;;;;;8.00;1.20;;;2.80;99.90;;;;;;5136725;27;20042;-84
2023/03/07 05:53:51;;;;;;;8.20;1.10;;;2.80;99.90;;;;;;5096807;28;20056;-84
2023/03/07 05:56:17;;;;;;;11.13;1.42;;;2.80;99.90;;;;;;5097600;28;20115;-84
2023/03/07 05:58:42;;;;;;;7.65;1.20;;;2.80;99.90;;;;;;5101094;27;20044;-84
2023/03/07 06:01:08;;;;;;;8.80;1.23;;;2.80;99.90;;;;;;5095368;28;20047;-84
2023/03/07 06:03:33;;;;;;;9.55;1.15;;;2.80;99.90;;;;;;5098422;28;20036;-84
2023/03/07 06:05:59;;;;;;;5.28;0.90;;;2.80;99.90;;;;;;5079151;28;20032;-84
2023/03/07 06:08:24;;;;;;;7.90;1.35;;;2.70;99.90;;;;;;5104115;28;20164;-84
2023/03/07 06:10:51;;;;;;;4.53;1.20;;;2.70;99.90;;;;;;5144943;27;20039;-84
2023/03/07 06:13:19;;;;;;;8.60;1.48;;;2.70;99.90;;;;;;5105488;27;20044;-84
2023/03/07 06:15:48;;;;;;;10.65;1.65;;;2.70;99.90;;;;;;5110374;28;20466;-83
2023/03/07 06:18:14;;;;;;;7.40;1.08;;;2.70;99.90;;;;;;5108157;28;20050;-83
2023/03/07 06:20:39;;;;;;;9.25;0.98;;;2.70;99.90;;;;;;5106714;28;20486;-83
2023/03/07 06:23:05;;;;;;;6.63;1.40;;;2.70;99.90;;;;;;5089474;28;20487;-84
2023/03/07 06:25:30;;;;;;;11.88;1.20;;;2.70;99.90;;;;;;5136978;27;20040;-84
2023/03/07 06:27:59;;;;;;;4.95;0.85;;;2.70;99.90;;;;;;5109178;28;20035;-83
2023/03/07 06:30:25;;;;;;;6.82;1.13;;;2.70;99.90;;;;;;5108886;28;20152;-84
2023/03/07 06:32:51;;;;;;;4.18;1.00;;;2.70;99.90;;;;;;5112124;27;20181;-84
2023/03/07 06:35:16;;;;;;;7.05;0.90;;;2.60;99.90;;;;;;5109248;28;20125;-84
2023/03/07 06:37:42;;;;;;;9.88;1.20;;;2.60;99.90;;;;;;5130531;27;20490;-84
2023/03/07 06:40:09;;;;;;;3.05;0.93;;;2.60;99.90;;;;;;5107746;27;20478;-85
2023/03/07 06:42:35;;;;;;;11.40;1.45;;;2.60;99.90;;;;;;5116058;27;20506;-84
2023/03/07 06:45:01;;;;;;;10.05;1.10;;;2.60;99.90;;;;;;5105669;28;20036;-83
2023/03/07 06:47:26;;;;;;;4.57;1.00;;;2.70;99.90;;;;;;5092775;28;20032;-84
2023/03/07 06:49:52;;;;;;;3.35;0.77;;;2.70;99.90;;;;;;5092756;28;20062;-83
2023/03/07 06:52:18;;;;;;;4.63;1.10;;;2.60;99.90;;;;;;5112459;27;20181;-83
2023/03/07 06:54:43;;;;;;;5.50;0.77;;;2.60;99.90;;;;;;5088338;28;20087;-84
2023/03/07 06:57:09;;;;;;;5.60;1.00;;;2.60;99.90;;;;;;5093278;27;20043;-84
2023/03/07 06:59:34;;;;;;;7.32;1.00;;;3.00;99.90;;;;;;5108587;27;20501;-84
2023/03/07 07:02:02;;;;;;;5.72;0.88;;;2.60;99.90;;;;;;5118198;27;20031;-84
2023/03/07 07:04:27;;;;;;;2.95;0.70;;;2.50;99.90;;;;;;5106666;27;20043;-85
2023/03/07 07:06:53;;;;;;;2.67;0.80;;;2.50;99.90;;;;;;5104971;28;20035;-84
2023/03/07 07:09:18;;;;;;;5.00;0.90;;;2.50;99.90;;;;;;5087980;28;20039;-84
2023/03/07 07:11:44;;;;;;;5.43;0.63;;;2.50;99.90;;;;;;5142344;27;20035;-85
2023/03/07 07:14:10;;;;;;;3.28;0.80;;;2.40;99.90;;;;;;5105191;28;20122;-84
2023/03/07 07:16:36;;;;;;;3.97;0.90;;;2.40;99.90;;;;;;5110315;28;20388;-85
2023/03/07 07:19:01;;;;;;;5.60;1.00;;;2.40;99.90;;;;;;5107071;28;20035;-85
2023/03/07 07:21:27;;;;;;;2.72;0.73;;;2.40;99.90;;;;;;5125726;27;20043;-85
2023/03/07 07:23:55;;;;;;;3.33;0.93;;;2.40;99.90;;;;;;5091771;28;20156;-84
2023/03/07 07:26:21;;;;;;;3.78;0.90;;;2.40;99.90;;;;;;5091245;28;20039;-85
2023/03/07 07:28:46;;;;;;;9.00;1.33;;;2.40;99.90;;;;;;5110144;28;20095;-85
2023/03/07 07:31:12;;;;;;;6.07;0.93;;;2.40;99.90;;;;;;5112781;27;20063;-84
2023/03/07 07:33:37;;;;;;;3.40;0.90;;;2.40;99.90;;;;;;5089175;28;20075;-84
2023/03/07 07:36:03;;;;;;;2.67;0.70;;;2.50;99.90;;;;;;5103291;28;20043;-84
2023/03/07 07:38:29;;;;;;;3.60;0.82;;;2.50;99.90;;;;;;5114529;27;20121;-85
2023/03/07 07:40:55;;;;;;;2.85;0.90;;;2.50;99.90;;;;;;5107123;28;20067;-84
2023/03/07 07:43:20;;;;;;;3.60;0.60;;;2.50;99.90;;;;;;5107483;28;20650;-84
2023/03/07 07:45:46;;;;;;;4.05;0.77;;;2.50;99.90;;;;;;5100975;27;20114;-84
2023/03/07 07:48:11;;;;;;;2.38;0.70;;;2.50;99.90;;;;;;5090440;28;20035;-84
2023/03/07 07:50:37;;;;;;;3.20;0.65;;;2.50;99.90;;;;;;5107889;28;20092;-84
2023/03/07 07:53:03;;;;;;;3.60;0.90;;;2.60;99.90;;;;;;5089292;28;20419;-84
2023/03/07 07:55:28;;;;;;;7.20;0.80;;;2.70;99.90;;;;;;5105435;28;20039;-84
2023/03/07 07:57:54;;;;;;;5.95;1.10;;;2.60;99.90;;;;;;5137002;27;20074;-84
2023/03/07 08:00:20;;;;;;;2.85;0.88;;;2.60;99.90;;;;;;5091541;28;20039;-85
2023/03/07 08:02:49;;;;;;;3.42;0.85;;;2.70;99.90;;;;;;5081681;28;20028;-84
2023/03/07 08:05:17;;;;;;;4.72;0.70;;;2.70;99.90;;;;;;5102561;28;20046;-84
2023/03/07 08:07:43;;;;;;;3.63;0.88;;;2.70;99.90;;;;;;5103737;28;20035;-85
2023/03/07 08:10:11;;;;;;;5.43;1.00;;;2.70;99.90;;;;;;5127887;27;20093;-85
2023/03/07 08:12:37;;;;;;;3.50;1.20;;;2.80;99.90;;;;;;5100384;28;20039;-84
2023/03/07 08:15:03;;;;;;;4.63;1.48;;;2.80;99.90;;;;;;5094716;28;20509;-84
2023/03/07 08:17:28;;;;;;;4.65;1.50;;;2.90;99.90;;;;;;5096636;28;20409;-83
2023/03/07 08:19:54;;;;;;;5.20;1.13;;;2.90;99.90;;;;;;5129612;27;20028;-84
2023/03/07 08:22:20;;;;;;;8.52;1.55;;;2.90;99.90;;;;;;5094491;28;20124;-84
2023/03/07 08:24:46;;;;;;;4.80;1.40;;;3.00;99.90;;;;;;5090854;28;20068;-84
2023/03/07 08:27:12;;;;;;;5.43;1.10;;;3.00;99.90;;;;;;5136569;27;20039;-84
2023/03/07 08:29:37;;;;;;;4.40;0.90;;;3.10;99.90;;;;;;5109417;28;20039;-84
2023/03/07 08:32:03;;;;;;;5.93;1.05;;;3.10;99.90;;;;;;5126050;27;20558;-85
2023/03/07 08:34:31;;;;;;;5.80;1.13;;;3.20;99.90;;;;;;5101351;28;20514;-83
2023/03/07 08:36:57;;;;;;;5.70;1.95;;;3.20;99.90;;;;;;5107827;28;20037;-84
2023/03/07 08:39:22;;;;;;;5.95;1.00;;;3.20;99.90;;;;;;5104523;28;20032;-84
2023/03/07 08:41:48;;;;;;;3.58;1.10;;;3.20;99.90;;;;;;5135706;27;20407;-84
2023/03/07 08:44:13;;;;;;;5.97;1.00;;;3.20;99.90;;;;;;5132045;27;20399;-85
2023/03/07 08:46:39;;;;;;;5.15;0.98;;;3.10;99.90;;;;;;5107158;28;20031;-85
2023/03/07 08:49:04;;;;;;;6.68;1.00;;;2.90;99.90;;;;;;5127193;27;20028;-84
2023/03/07 08:51:30;;;;;;;3.50;0.75;;;2.70;99.90;;;;;;5086255;28;20040;-85
2023/03/07 08:53:56;;;;;;;4.22;0.80;;;2.60;99.90;;;;;;5105222;28;20091;-84
2023/03/07 08:56:22;;;;;;;3.50;0.90;;;2.50;99.90;;;;;;5107970;28;20032;-83
2023/03/07 08:58:52;;;;;;;6.90;0.80;;;2.50;99.90;;;;;;5134737;27;20036;-85
2023/03/07 09:01:18;;;;;;;5.63;0.70;;;2.40;99.90;;;;;;5102404;28;20039;-85
2023/03/07 09:03:43;;;;;;;6.63;0.80;;;2.40;99.90;;;;;;5127742;27;20046;-84
2023/03/07 09:06:18;;;;;;;5.63;1.00;;;2.40;99.90;;;;;;5086194;28;20088;-84
2023/03/07 09:08:44;;;;;;;3.33;0.73;;;2.40;99.90;;;;;;5099297;28;20032;-85
2023/03/07 09:11:09;;;;;;;1.25;0.40;;;2.40;99.90;;;;;;5095886;28;20126;-83
2023/03/07 09:13:35;;;;;;;3.10;0.90;;;2.30;99.90;;;;;;5102631;28;20036;-84
2023/03/07 09:16:04;;;;;;;3.00;0.82;;;2.30;99.90;;;;;;5087287;28;20043;-84
2023/03/07 09:18:29;;;;;;;8.65;1.00;;;3.00;99.90;;;;;;5105424;28;20040;-84
2023/03/07 09:21:01;;;;;;;6.57;1.13;;;2.30;99.90;;;;;;5107030;28;20100;-83
2023/03/07 09:23:27;;;;;;;3.72;0.68;;;2.30;99.90;;;;;;5115858;27;20035;-84
2023/03/07 09:25:52;;;;;;;7.97;1.17;;;2.30;99.90;;;;;;5086002;28;20522;-84
2023/03/07 09:28:18;;;;;;;4.13;1.02;;;2.40;99.90;;;;;;5103625;27;20039;-84
2023/03/07 09:30:43;;;;;;;5.03;1.23;;;2.40;99.90;;;;;;5096314;27;20429;-84
2023/03/07 09:33:09;;;;;;;5.00;1.00;;;2.50;99.90;;;;;;5103357;28;20040;-84
2023/03/07 09:35:37;;;;;;;4.37;0.90;;;2.50;99.90;;;;;;5109857;28;20491;-83
2023/03/07 09:38:02;;;;;;;4.30;0.98;;;2.50;99.90;;;;;;5089292;28;20118;-84
2023/03/07 09:40:28;;;;;;;6.53;1.05;;;2.50;99.90;;;;;;5102090;28;20116;-84
2023/03/07 09:43:07;;;;;;;3.90;0.70;;;2.50;99.90;;;;;;5131614;27;20023;-84
2023/03/07 09:46:10;;;;;;;4.07;1.10;;;2.60;99.90;;;;;;5110632;28;20035;-84
2023/03/07 09:48:46;;;;;;;6.25;1.08;;;2.60;99.90;;;;;;5103589;28;20048;-83
2023/03/07 09:51:30;;;;;;;4.80;1.00;;;2.70;99.90;;;;;;5107023;28;20039;-84
2023/03/07 09:54:00;;;;;;;7.45;1.67;;;2.70;99.90;;;;;;5122347;27;20044;-84
2023/03/07 09:56:38;;;;;;;2.47;0.70;;;2.70;99.90;;;;;;5108275;28;20498;-84
2023/03/07 09:59:20;;;;;;;6.03;0.98;;;2.80;99.90;;;;;;5109348;28;20050;-83
2023/03/07 10:01:49;;;;;;;5.68;1.00;;;2.90;99.90;;;;;;5110202;28;20040;-83
2023/03/07 10:04:22;;;;;;;5.18;1.20;;;2.90;99.90;;;;;;5103382;28;20043;-84
2023/03/07 10:06:53;;;;;;;6.85;1.23;;;3.00;99.90;;;;;;5113500;27;20624;-84
2023/03/07 10:09:21;;;;;;;5.03;0.80;;;3.10;99.90;;;;;;5090448;28;20039;-83
2023/03/07 10:12:02;;;;;;;10.32;1.40;;;3.10;99.90;;;;;;5106852;28;20032;-84
2023/03/07 10:14:46;;;;;;;7.28;1.40;;;3.20;99.90;;;;;;5104057;28;20035;-84
2023/03/07 10:17:41;;;;;;;4.32;1.13;;;3.40;99.90;;;;;;5095318;28;20036;-84
2023/03/07 10:20:30;;;;;;;8.10;1.05;;;3.40;99.90;;;;;;5134977;27;20118;-83
2023/03/07 10:23:18;;;;;;;3.60;0.80;;;3.50;99.90;;;;;;5104549;28;20054;-83
2023/03/07 10:26:15;;;;;;;8.77;1.35;;;3.50;99.90;;;;;;5097892;28;20110;-83
2023/03/07 10:28:44;;;;;;;6.93;1.58;;;3.60;99.90;;;;;;5135268;27;20067;-84
2023/03/07 10:31:43;;;;;;;7.15;1.40;;;3.70;99.90;;;;;;5090742;28;20043;-84
2023/03/07 10:34:27;;;;;;;7.57;1.08;;;3.80;99.90;;;;;;5094038;28;20047;-83
2023/03/07 10:37:09;;;;;;;7.38;1.10;;;3.80;99.90;;;;;;5104465;28;20032;-84
2023/03/07 10:39:52;;;;;;;7.63;1.10;;;3.80;99.90;;;;;;5104780;28;20043;-84
2023/03/07 10:42:21;;;;;;;8.25;1.55;;;3.90;99.90;;;;;;5108590;28;20529;-85
2023/03/07 10:44:47;;;;;;;9.75;1.35;;;3.90;99.90;;;;;;5089907;28;20031;-84
2023/03/07 10:47:25;;;;;;;12.07;1.33;;;4.00;99.90;;;;;;5104906;28;20414;-84
2023/03/07 10:50:16;;;;;;;8.45;1.58;;;4.00;99.90;;;;;;5108577;28;20040;-84
2023/03/07 10:52:59;;;;;;;6.63;1.13;;;3.90;99.90;;;;;;5109736;28;20050;-84
2023/03/07 10:55:37;;;;;;;7.30;1.30;;;4.10;99.90;;;;;;5089869;28;20394;-84
2023/03/07 10:58:24;;;;;;;6.40;1.55;;;4.10;99.90;;;;;;5104219;28;20044;-84
2023/03/07 11:01:06;;;;;;;5.97;1.42;;;4.20;99.90;;;;;;5111099;27;20546;-84
2023/03/07 11:03:38;;;;;;;6.32;1.27;;;4.30;99.90;;;;;;5107491;27;20084;-83
2023/03/07 11:06:05;;;;;;;7.85;1.13;;;4.30;99.90;;;;;;5136515;27;20677;-84
2023/03/07 11:08:35;;;;;;;6.82;1.20;;;4.40;99.90;;;;;;5104992;27;20076;-83
2023/03/07 11:11:03;;;;;;;6.10;1.23;;;4.50;99.90;;;;;;5125023;27;20450;-84
2023/03/07 11:13:30;;;;;;;3.67;1.25;;;4.50;99.90;;;;;;5108859;27;20042;-84
2023/03/07 11:17:00;;;;;;;8.00;1.20;;;4.70;99.90;;;;;;5110586;27;20415;-84
2023/03/07 11:19:36;;;;;;;6.15;1.45;;;4.70;99.90;;;;;;5064616;28;20044;-84
2023/03/07 11:22:18;;;;;;;9.60;1.52;;;4.70;99.90;;;;;;5038291;28;20098;-84
2023/03/07 11:24:58;;;;;;;6.35;1.58;;;4.70;99.90;;;;;;5098010;28;20414;-84
2023/03/07 11:27:33;;;;;;;3.90;1.15;;;4.70;99.90;;;;;;5100125;27;20101;-84
2023/03/07 11:30:44;;;;;;;6.03;1.15;;;4.70;99.90;;;;;;5093137;28;20039;-83
2023/03/07 11:33:19;;;;;;;6.10;1.45;;;5.00;99.90;;;;;;5108304;27;20055;-84
2023/03/07 11:36:05;;;;;;;6.57;1.00;;;5.20;99.90;;;;;;5101792;28;20031;-84
2023/03/07 11:39:04;;;;;;;5.13;0.93;;;5.40;99.90;;;;;;5106069;27;20074;-85
2023/03/07 11:41:34;;;;;;;7.65;0.90;;;5.50;99.90;;;;;;5086055;28;20040;-84
2023/03/07 11:44:14;;;;;;;5.30;0.88;;;4.90;99.90;;;;;;5101890;28;20084;-84
2023/03/07 11:46:46;;;;;;;6.70;1.20;;;4.20;99.90;;;;;;5135929;27;20036;-85
2023/03/07 11:49:41;;;;;;;5.53;1.00;;;3.70;99.90;;;;;;5137714;27;20039;-83
2023/03/07 11:52:34;;;;;;;6.63;0.80;;;3.50;99.90;;;;;;5104194;27;20715;-84
2023/03/07 11:55:24;;;;;;;7.97;0.98;;;3.20;99.90;;;;;;5077649;28;20032;-84
2023/03/07 11:58:09;;;;;;;5.07;1.45;;;3.10;99.90;;;;;;5100493;28;20509;-84
2023/03/07 12:00:57;;;;;;;2.88;1.00;;;3.00;99.90;;;;;;5102067;27;20142;-84
2023/03/07 12:03:25;;;;;;;3.72;0.93;;;3.00;99.90;;;;;;5106590;28;20046;-84
2023/03/07 12:06:13;;;;;;;4.25;1.00;;;3.00;99.90;;;;;;5133818;27;20165;-84
2023/03/07 12:09:06;;;;;;;4.57;0.95;;;3.30;99.90;;;;;;5090591;28;20063;-85
2023/03/07 12:12:04;;;;;;;2.42;0.47;;;3.60;99.90;;;;;;5109026;28;20040;-85
2023/03/07 12:14:51;;;;;;;5.38;0.73;;;4.10;99.90;;;;;;5061938;28;20040;-84
2023/03/07 12:17:28;;;;;;;5.28;0.80;;;4.40;99.90;;;;;;5138864;27;20048;-84
2023/03/07 12:20:12;;;;;;;3.72;0.75;;;4.50;99.90;;;;;;5088374;28;20032;-84
2023/03/07 12:23:08;;;;;;;5.68;1.00;;;4.90;99.90;;;;;;5105242;28;20032;-84
2023/03/07 12:25:50;;;;;;;5.10;1.05;;;5.20;99.90;;;;;;5138687;27;20046;-84
2023/03/07 12:28:48;;;;;;;7.25;0.90;;;5.50;99.90;;;;;;5109732;28;20035;-84
2023/03/07 12:31:25;;;;;;;5.75;0.90;;;5.80;99.90;;;;;;5048499;28;20425;-84
2023/03/07 12:33:54;;;;;;;10.18;1.30;;;6.00;99.90;;;;;;5098301;28;20051;-84
2023/03/07 12:36:32;;;;;;;5.57;0.93;;;6.10;99.90;;;;;;5101104;28;20063;-84
2023/03/07 12:39:24;;;;;;;5.50;1.02;;;6.40;99.90;;;;;;5090307;28;20513;-84
2023/03/07 12:42:01;;;;;;;5.45;1.00;;;6.70;99.90;;;;;;5077986;28;20069;-84
2023/03/07 12:44:40;;;;;;;5.05;0.82;;;6.60;99.90;;;;;;5092560;28;20743;-84
2023/03/07 12:47:15;;;;;;;5.03;0.75;;;6.40;99.90;;;;;;5145233;27;20388;-84
2023/03/07 12:49:50;;;;;;;3.60;0.70;;;6.10;99.90;;;;;;5143967;27;20035;-84
2023/03/07 12:52:27;;;;;;;7.05;1.02;;;5.90;99.90;;;;;;5110440;28;20359;-84
2023/03/07 12:55:30;;;;;;;4.47;0.80;;;6.10;99.90;;;;;;5106656;28;20027;-84
2023/03/07 12:58:08;;;;;;;3.22;1.00;;;6.10;99.90;;;;;;5106250;28;20044;-84
2023/03/07 13:00:42;;;;;;;4.40;0.80;;;6.30;99.90;;;;;;5111649;28;20039;-84
2023/03/07 13:03:15;;;;;;;3.55;0.68;;;6.50;99.90;;;;;;5109374;28;20039;-84
2023/03/07 13:05:42;;;;;;;7.68;1.10;;;6.60;99.90;;;;;;5107286;28;20063;-85
2023/03/07 13:08:17;;;;;;;7.13;0.90;;;6.50;99.90;;;;;;5114410;28;20459;-84
2023/03/07 13:10:44;;;;;;;3.45;0.68;;;6.20;99.90;;;;;;5113984;28;20499;-84